sensor_id;sensor_type;location;lat;lon;timestamp;temperature;humidity
69162;DHT22;56269;51.738;21.652;2023-07-31T00:00:48;16.89;98.10
69162;DHT22;56269;51.738;21.652;2023-07-31T00:03:25;16.83;98.30
69162;DHT22;56269;51.738;21.652;2023-07-31T00:05:51;16.84;98.24
69162;DHT22;56269;51.738;21.652;2023-07-31T00:08:17;16.84;98.15
69162;DHT22;56269;51.738;21.652;2023-07-31T00:10:43;16.85;98.14
69162;DHT22;56269;51.738;21.652;2023-07-31T00:13:09;16.75;98.36
69162;DHT22;56269;51.738;21.652;2023-07-31T00:15:36;16.64;98.58
69162;DHT22;56269;51.738;21.652;2023-07-31T00:18:02;16.63;98.68
69162;DHT22;56269;51.738;21.652;2023-07-31T00:20:28;16.60;98.65
69162;DHT22;56269;51.738;21.652;2023-07-31T00:22:54;16.60;98.71
69162;DHT22;56269;51.738;21.652;2023-07-31T00:25:20;16.53;98.74
69162;DHT22;56269;51.738;21.652;2023-07-31T00:27:46;16.43;98.93
69162;DHT22;56269;51.738;21.652;2023-07-31T00:30:12;16.39;99.06
69162;DHT22;56269;51.738;21.652;2023-07-31T00:32:38;16.37;99.06
69162;DHT22;56269;51.738;21.652;2023-07-31T00:35:05;16.29;99.19
69162;DHT22;56269;51.738;21.652;2023-07-31T00:37:31;16.27;99.31
69162;DHT22;56269;51.738;21.652;2023-07-31T00:39:57;16.29;99.44
69162;DHT22;56269;51.738;21.652;2023-07-31T00:42:24;16.30;99.36
69162;DHT22;56269;51.738;21.652;2023-07-31T00:44:51;16.23;99.35
69162;DHT22;56269;51.738;21.652;2023-07-31T00:47:17;16.26;99.37
69162;DHT22;56269;51.738;21.652;2023-07-31T00:49:43;16.32;99.30
69162;DHT22;56269;51.738;21.652;2023-07-31T00:52:10;16.33;99.22
69162;DHT22;56269;51.738;21.652;2023-07-31T00:54:36;16.34;99.21
69162;DHT22;56269;51.738;21.652;2023-07-31T00:57:03;16.44;98.99
69162;DHT22;56269;51.738;21.652;2023-07-31T00:59:29;16.52;98.81
69162;DHT22;56269;51.738;21.652;2023-07-31T01:01:55;16.57;98.50
69162;DHT22;56269;51.738;21.652;2023-07-31T01:04:21;16.59;98.12
69162;DHT22;56269;51.738;21.652;2023-07-31T01:07:02;16.63;97.97
69162;DHT22;56269;51.738;21.652;2023-07-31T01:09:45;16.65;97.46
69162;DHT22;56269;51.738;21.652;2023-07-31T01:12:15;16.64;96.91
69162;DHT22;56269;51.738;21.652;2023-07-31T01:15:13;16.71;96.20
69162;DHT22;56269;51.738;21.652;2023-07-31T01:17:41;16.64;96.20
69162;DHT22;56269;51.738;21.652;2023-07-31T01:20:17;16.63;96.16
69162;DHT22;56269;51.738;21.652;2023-07-31T01:23:23;16.54;96.24
69162;DHT22;56269;51.738;21.652;2023-07-31T01:26:05;16.44;96.44
69162;DHT22;56269;51.738;21.652;2023-07-31T01:29:00;16.33;96.71
69162;DHT22;56269;51.738;21.652;2023-07-31T01:31:29;16.22;97.14
69162;DHT22;56269;51.738;21.652;2023-07-31T01:33:58;16.19;97.35
69162;DHT22;56269;51.738;21.652;2023-07-31T01:36:25;16.09;97.61
69162;DHT22;56269;51.738;21.652;2023-07-31T01:38:52;16.05;97.82
69162;DHT22;56269;51.738;21.652;2023-07-31T01:41:18;16.01;97.76
69162;DHT22;56269;51.738;21.652;2023-07-31T01:43:45;15.95;97.98
69162;DHT22;56269;51.738;21.652;2023-07-31T01:46:12;15.88;98.01
69162;DHT22;56269;51.738;21.652;2023-07-31T01:48:38;15.85;98.33
69162;DHT22;56269;51.738;21.652;2023-07-31T01:51:04;15.79;98.50
69162;DHT22;56269;51.738;21.652;2023-07-31T01:53:31;15.65;98.45
69162;DHT22;56269;51.738;21.652;2023-07-31T01:55:57;15.54;98.77
69162;DHT22;56269;51.738;21.652;2023-07-31T01:58:23;15.44;99.71
69162;DHT22;56269;51.738;21.652;2023-07-31T02:00:49;15.31;99.84
69162;DHT22;56269;51.738;21.652;2023-07-31T02:03:15;15.16;99.99
69162;DHT22;56269;51.738;21.652;2023-07-31T02:05:48;15.07;99.99
69162;DHT22;56269;51.738;21.652;2023-07-31T02:08:15;15.03;99.99
69162;DHT22;56269;51.738;21.652;2023-07-31T02:10:42;15.06;99.99
69162;DHT22;56269;51.738;21.652;2023-07-31T02:13:08;15.10;99.99
69162;DHT22;56269;51.738;21.652;2023-07-31T02:15:35;15.16;99.99
69162;DHT22;56269;51.738;21.652;2023-07-31T02:18:01;15.21;99.99
69162;DHT22;56269;51.738;21.652;2023-07-31T02:20:27;15.32;99.99
69162;DHT22;56269;51.738;21.652;2023-07-31T02:22:53;15.38;99.99
69162;DHT22;56269;51.738;21.652;2023-07-31T02:25:20;15.40;99.99
69162;DHT22;56269;51.738;21.652;2023-07-31T02:27:46;15.40;99.99
69162;DHT22;56269;51.738;21.652;2023-07-31T02:30:12;15.32;99.99
69162;DHT22;56269;51.738;21.652;2023-07-31T02:32:38;15.30;99.99
69162;DHT22;56269;51.738;21.652;2023-07-31T02:35:05;15.26;99.99
69162;DHT22;56269;51.738;21.652;2023-07-31T02:37:31;15.17;99.99
69162;DHT22;56269;51.738;21.652;2023-07-31T02:39:57;15.11;99.99
69162;DHT22;56269;51.738;21.652;2023-07-31T02:42:23;15.04;99.99
69162;DHT22;56269;51.738;21.652;2023-07-31T02:44:49;14.99;99.99
69162;DHT22;56269;51.738;21.652;2023-07-31T02:47:17;15.01;99.99
69162;DHT22;56269;51.738;21.652;2023-07-31T02:49:43;15.00;99.99
69162;DHT22;56269;51.738;21.652;2023-07-31T02:52:09;15.01;99.99
69162;DHT22;56269;51.738;21.652;2023-07-31T02:54:38;15.08;99.99
69162;DHT22;56269;51.738;21.652;2023-07-31T02:57:04;15.11;99.99
69162;DHT22;56269;51.738;21.652;2023-07-31T02:59:30;15.12;99.99
69162;DHT22;56269;51.738;21.652;2023-07-31T03:01:56;15.06;99.99
69162;DHT22;56269;51.738;21.652;2023-07-31T03:04:23;14.96;99.99
69162;DHT22;56269;51.738;21.652;2023-07-31T03:06:49;14.87;99.99
69162;DHT22;56269;51.738;21.652;2023-07-31T03:09:15;14.77;99.99
69162;DHT22;56269;51.738;21.652;2023-07-31T03:11:41;14.80;99.99
69162;DHT22;56269;51.738;21.652;2023-07-31T03:14:07;14.72;99.99
69162;DHT22;56269;51.738;21.652;2023-07-31T03:16:33;14.66;99.99
69162;DHT22;56269;51.738;21.652;2023-07-31T03:18:59;14.73;99.99
69162;DHT22;56269;51.738;21.652;2023-07-31T03:21:25;14.73;99.99
69162;DHT22;56269;51.738;21.652;2023-07-31T03:23:52;14.83;99.99
69162;DHT22;56269;51.738;21.652;2023-07-31T03:26:18;14.84;99.99
69162;DHT22;56269;51.738;21.652;2023-07-31T03:28:44;14.86;99.99
69162;DHT22;56269;51.738;21.652;2023-07-31T03:31:10;14.83;99.99
69162;DHT22;56269;51.738;21.652;2023-07-31T03:33:37;14.83;99.99
69162;DHT22;56269;51.738;21.652;2023-07-31T03:36:03;14.81;99.99
69162;DHT22;56269;51.738;21.652;2023-07-31T03:38:30;14.80;99.99
69162;DHT22;56269;51.738;21.652;2023-07-31T03:40:56;14.81;99.99
69162;DHT22;56269;51.738;21.652;2023-07-31T03:43:22;14.77;99.99
69162;DHT22;56269;51.738;21.652;2023-07-31T03:45:48;14.83;99.99
69162;DHT22;56269;51.738;21.652;2023-07-31T03:48:15;14.89;99.99
69162;DHT22;56269;51.738;21.652;2023-07-31T03:50:42;14.99;99.99
69162;DHT22;56269;51.738;21.652;2023-07-31T03:53:08;15.07;99.99
69162;DHT22;56269;51.738;21.652;2023-07-31T03:55:37;15.26;99.99
69162;DHT22;56269;51.738;21.652;2023-07-31T03:58:03;15.40;99.99
69162;DHT22;56269;51.738;21.652;2023-07-31T04:00:29;15.57;99.99
69162;DHT22;56269;51.738;21.652;2023-07-31T04:02:56;15.68;99.99
69162;DHT22;56269;51.738;21.652;2023-07-31T04:05:23;15.82;99.33
69162;DHT22;56269;51.738;21.652;2023-07-31T04:07:49;15.98;99.39
69162;DHT22;56269;51.738;21.652;2023-07-31T04:10:15;16.09;99.40
69162;DHT22;56269;51.738;21.652;2023-07-31T04:12:42;16.19;99.23
69162;DHT22;56269;51.738;21.652;2023-07-31T04:15:08;16.30;98.35
69162;DHT22;56269;51.738;21.652;2023-07-31T04:17:34;16.39;97.97
69162;DHT22;56269;51.738;21.652;2023-07-31T04:20:02;16.49;97.62
69162;DHT22;56269;51.738;21.652;2023-07-31T04:22:29;16.57;97.51
69162;DHT22;56269;51.738;21.652;2023-07-31T04:24:55;16.70;97.23
69162;DHT22;56269;51.738;21.652;2023-07-31T04:27:21;16.78;96.43
69162;DHT22;56269;51.738;21.652;2023-07-31T04:29:47;16.91;96.29
69162;DHT22;56269;51.738;21.652;2023-07-31T04:32:17;17.05;95.11
69162;DHT22;56269;51.738;21.652;2023-07-31T04:34:43;17.16;95.62
69162;DHT22;56269;51.738;21.652;2023-07-31T04:37:09;17.29;94.80
69162;DHT22;56269;51.738;21.652;2023-07-31T04:39:35;17.35;95.28
69162;DHT22;56269;51.738;21.652;2023-07-31T04:42:04;17.32;94.90
69162;DHT22;56269;51.738;21.652;2023-07-31T04:44:30;17.31;94.75
69162;DHT22;56269;51.738;21.652;2023-07-31T04:46:56;17.19;95.13
69162;DHT22;56269;51.738;21.652;2023-07-31T04:49:23;17.15;94.91
69162;DHT22;56269;51.738;21.652;2023-07-31T04:51:49;17.12;95.48
69162;DHT22;56269;51.738;21.652;2023-07-31T04:54:15;17.14;95.30
69162;DHT22;56269;51.738;21.652;2023-07-31T04:56:44;17.12;94.97
69162;DHT22;56269;51.738;21.652;2023-07-31T04:59:09;17.18;95.08
69162;DHT22;56269;51.738;21.652;2023-07-31T05:01:36;17.22;95.16
69162;DHT22;56269;51.738;21.652;2023-07-31T05:04:02;17.24;94.80
69162;DHT22;56269;51.738;21.652;2023-07-31T05:06:28;17.32;94.98
69162;DHT22;56269;51.738;21.652;2023-07-31T05:08:54;17.42;95.04
69162;DHT22;56269;51.738;21.652;2023-07-31T05:11:20;17.50;94.28
69162;DHT22;56269;51.738;21.652;2023-07-31T05:13:46;17.59;94.12
69162;DHT22;56269;51.738;21.652;2023-07-31T05:16:13;17.75;94.55
69162;DHT22;56269;51.738;21.652;2023-07-31T05:18:39;17.90;94.34
69162;DHT22;56269;51.738;21.652;2023-07-31T05:21:07;18.01;93.47
69162;DHT22;56269;51.738;21.652;2023-07-31T05:23:33;18.10;92.12
69162;DHT22;56269;51.738;21.652;2023-07-31T05:26:04;18.41;91.92
69162;DHT22;56269;51.738;21.652;2023-07-31T05:28:30;18.55;91.20
69162;DHT22;56269;51.738;21.652;2023-07-31T05:31:03;18.69;91.92
69162;DHT22;56269;51.738;21.652;2023-07-31T05:33:29;18.78;90.67
69162;DHT22;56269;51.738;21.652;2023-07-31T05:35:55;18.71;89.93
69162;DHT22;56269;51.738;21.652;2023-07-31T05:38:21;18.78;89.91
69162;DHT22;56269;51.738;21.652;2023-07-31T05:40:48;18.72;89.57
69162;DHT22;56269;51.738;21.652;2023-07-31T05:43:14;18.73;90.13
69162;DHT22;56269;51.738;21.652;2023-07-31T05:45:44;19.02;89.87
69162;DHT22;56269;51.738;21.652;2023-07-31T05:48:10;18.98;88.51
69162;DHT22;56269;51.738;21.652;2023-07-31T05:50:36;18.86;89.20
69162;DHT22;56269;51.738;21.652;2023-07-31T05:53:04;18.98;88.94
69162;DHT22;56269;51.738;21.652;2023-07-31T05:55:31;18.84;88.90
69162;DHT22;56269;51.738;21.652;2023-07-31T05:57:57;18.81;88.75
69162;DHT22;56269;51.738;21.652;2023-07-31T06:00:23;18.78;89.23
69162;DHT22;56269;51.738;21.652;2023-07-31T06:02:49;18.82;89.63
69162;DHT22;56269;51.738;21.652;2023-07-31T06:05:15;18.94;89.24
69162;DHT22;56269;51.738;21.652;2023-07-31T06:07:41;19.02;89.72
69162;DHT22;56269;51.738;21.652;2023-07-31T06:10:08;18.91;88.48
69162;DHT22;56269;51.738;21.652;2023-07-31T06:12:35;18.86;88.77
69162;DHT22;56269;51.738;21.652;2023-07-31T06:15:03;18.98;89.42
69162;DHT22;56269;51.738;21.652;2023-07-31T06:17:29;18.85;87.95
69162;DHT22;56269;51.738;21.652;2023-07-31T06:19:56;18.92;87.33
69162;DHT22;56269;51.738;21.652;2023-07-31T06:22:22;18.79;88.24
69162;DHT22;56269;51.738;21.652;2023-07-31T06:24:49;18.91;87.16
69162;DHT22;56269;51.738;21.652;2023-07-31T06:27:15;19.06;86.54
69162;DHT22;56269;51.738;21.652;2023-07-31T06:29:42;18.94;87.05
69162;DHT22;56269;51.738;21.652;2023-07-31T06:32:08;19.22;86.25
69162;DHT22;56269;51.738;21.652;2023-07-31T06:34:34;19.16;86.06
69162;DHT22;56269;51.738;21.652;2023-07-31T06:37:00;19.51;85.82
69162;DHT22;56269;51.738;21.652;2023-07-31T06:39:27;19.75;84.27
69162;DHT22;56269;51.738;21.652;2023-07-31T06:41:53;19.95;84.10
69162;DHT22;56269;51.738;21.652;2023-07-31T06:44:19;19.97;82.74
69162;DHT22;56269;51.738;21.652;2023-07-31T06:46:45;20.12;82.68
69162;DHT22;56269;51.738;21.652;2023-07-31T06:49:12;20.15;82.94
69162;DHT22;56269;51.738;21.652;2023-07-31T06:51:41;20.25;82.24
69162;DHT22;56269;51.738;21.652;2023-07-31T06:54:08;20.15;81.33
69162;DHT22;56269;51.738;21.652;2023-07-31T06:56:34;20.17;82.09
69162;DHT22;56269;51.738;21.652;2023-07-31T06:59:00;20.32;80.85
69162;DHT22;56269;51.738;21.652;2023-07-31T07:01:26;20.65;79.98
69162;DHT22;56269;51.738;21.652;2023-07-31T07:03:54;20.52;80.73
69162;DHT22;56269;51.738;21.652;2023-07-31T07:06:22;20.59;81.06
69162;DHT22;56269;51.738;21.652;2023-07-31T07:08:50;21.47;78.30
69162;DHT22;56269;51.738;21.652;2023-07-31T07:11:17;21.11;77.80
69162;DHT22;56269;51.738;21.652;2023-07-31T07:13:43;20.77;78.31
69162;DHT22;56269;51.738;21.652;2023-07-31T07:16:09;20.72;78.61
69162;DHT22;56269;51.738;21.652;2023-07-31T07:18:36;20.62;78.80
69162;DHT22;56269;51.738;21.652;2023-07-31T07:21:02;20.65;78.27
69162;DHT22;56269;51.738;21.652;2023-07-31T07:23:29;20.90;79.39
69162;DHT22;56269;51.738;21.652;2023-07-31T07:25:55;21.66;77.94
69162;DHT22;56269;51.738;21.652;2023-07-31T07:28:21;22.49;75.69
69162;DHT22;56269;51.738;21.652;2023-07-31T07:30:53;23.03;74.52
69162;DHT22;56269;51.738;21.652;2023-07-31T07:33:20;23.79;73.14
69162;DHT22;56269;51.738;21.652;2023-07-31T07:35:46;24.53;70.14
69162;DHT22;56269;51.738;21.652;2023-07-31T07:38:14;24.57;68.94
69162;DHT22;56269;51.738;21.652;2023-07-31T07:40:41;24.48;68.75
69162;DHT22;56269;51.738;21.652;2023-07-31T07:43:07;24.79;68.73
69162;DHT22;56269;51.738;21.652;2023-07-31T07:45:33;24.78;67.60
69162;DHT22;56269;51.738;21.652;2023-07-31T07:48:00;23.93;67.54
69162;DHT22;56269;51.738;21.652;2023-07-31T07:50:26;23.48;70.37
69162;DHT22;56269;51.738;21.652;2023-07-31T07:52:52;23.97;70.76
69162;DHT22;56269;51.738;21.652;2023-07-31T07:55:18;24.60;70.57
69162;DHT22;56269;51.738;21.652;2023-07-31T07:57:44;24.87;68.86
69162;DHT22;56269;51.738;21.652;2023-07-31T08:00:12;24.68;66.43
69162;DHT22;56269;51.738;21.652;2023-07-31T08:02:39;24.38;67.25
69162;DHT22;56269;51.738;21.652;2023-07-31T08:05:05;24.36;68.64
69162;DHT22;56269;51.738;21.652;2023-07-31T08:07:31;23.79;66.57
69162;DHT22;56269;51.738;21.652;2023-07-31T08:09:57;23.44;69.06
69162;DHT22;56269;51.738;21.652;2023-07-31T08:12:24;23.22;70.07
69162;DHT22;56269;51.738;21.652;2023-07-31T08:14:50;23.18;69.18
69162;DHT22;56269;51.738;21.652;2023-07-31T08:17:16;23.14;70.56
69162;DHT22;56269;51.738;21.652;2023-07-31T08:19:42;23.32;70.67
69162;DHT22;56269;51.738;21.652;2023-07-31T08:22:10;23.34;71.32
69162;DHT22;56269;51.738;21.652;2023-07-31T08:24:35;23.28;71.31
69162;DHT22;56269;51.738;21.652;2023-07-31T08:27:02;23.97;70.58
69162;DHT22;56269;51.738;21.652;2023-07-31T08:29:28;23.82;71.79
69162;DHT22;56269;51.738;21.652;2023-07-31T08:31:54;24.43;69.41
69162;DHT22;56269;51.738;21.652;2023-07-31T08:34:20;24.87;69.60
69162;DHT22;56269;51.738;21.652;2023-07-31T08:36:46;24.84;68.85
69162;DHT22;56269;51.738;21.652;2023-07-31T08:39:12;24.74;68.46
69162;DHT22;56269;51.738;21.652;2023-07-31T08:41:39;23.80;69.63
69162;DHT22;56269;51.738;21.652;2023-07-31T08:44:06;22.94;71.44
69162;DHT22;56269;51.738;21.652;2023-07-31T08:46:33;23.05;69.67
69162;DHT22;56269;51.738;21.652;2023-07-31T08:49:02;22.83;72.53
69162;DHT22;56269;51.738;21.652;2023-07-31T08:51:30;23.03;71.27
69162;DHT22;56269;51.738;21.652;2023-07-31T08:53:56;22.93;72.25
69162;DHT22;56269;51.738;21.652;2023-07-31T08:56:23;22.60;73.10
69162;DHT22;56269;51.738;21.652;2023-07-31T08:58:51;22.77;71.94
69162;DHT22;56269;51.738;21.652;2023-07-31T09:01:19;22.22;73.39
69162;DHT22;56269;51.738;21.652;2023-07-31T09:03:45;22.05;74.04
69162;DHT22;56269;51.738;21.652;2023-07-31T09:06:13;22.50;74.16
69162;DHT22;56269;51.738;21.652;2023-07-31T09:08:41;22.53;73.37
69162;DHT22;56269;51.738;21.652;2023-07-31T09:11:08;23.44;71.92
69162;DHT22;56269;51.738;21.652;2023-07-31T09:13:34;24.38;70.03
69162;DHT22;56269;51.738;21.652;2023-07-31T09:16:00;24.68;69.13
69162;DHT22;56269;51.738;21.652;2023-07-31T09:18:26;25.63;67.76
69162;DHT22;56269;51.738;21.652;2023-07-31T09:21:05;24.78;67.65
69162;DHT22;56269;51.738;21.652;2023-07-31T09:23:42;24.31;67.70
69162;DHT22;56269;51.738;21.652;2023-07-31T09:26:10;22.84;71.29
69162;DHT22;56269;51.738;21.652;2023-07-31T09:28:36;23.15;72.63
69162;DHT22;56269;51.738;21.652;2023-07-31T09:31:02;24.30;69.28
69162;DHT22;56269;51.738;21.652;2023-07-31T09:33:28;25.40;68.89
69162;DHT22;56269;51.738;21.652;2023-07-31T09:35:55;25.59;66.30
69162;DHT22;56269;51.738;21.652;2023-07-31T09:38:20;26.08;64.74
69162;DHT22;56269;51.738;21.652;2023-07-31T09:40:48;26.63;65.00
69162;DHT22;56269;51.738;21.652;2023-07-31T09:43:20;26.56;62.71
69162;DHT22;56269;51.738;21.652;2023-07-31T09:45:47;26.30;61.80
69162;DHT22;56269;51.738;21.652;2023-07-31T09:48:17;25.36;63.59
69162;DHT22;56269;51.738;21.652;2023-07-31T09:50:45;25.35;63.15
69162;DHT22;56269;51.738;21.652;2023-07-31T09:53:12;25.89;60.09
69162;DHT22;56269;51.738;21.652;2023-07-31T09:55:40;25.89;62.82
69162;DHT22;56269;51.738;21.652;2023-07-31T09:58:09;24.72;65.11
69162;DHT22;56269;51.738;21.652;2023-07-31T10:00:36;24.82;65.58
69162;DHT22;56269;51.738;21.652;2023-07-31T10:03:06;25.11;63.91
69162;DHT22;56269;51.738;21.652;2023-07-31T10:05:46;25.30;64.31
69162;DHT22;56269;51.738;21.652;2023-07-31T10:08:16;24.57;63.67
69162;DHT22;56269;51.738;21.652;2023-07-31T10:10:45;24.56;64.60
69162;DHT22;56269;51.738;21.652;2023-07-31T10:13:13;24.91;64.73
69162;DHT22;56269;51.738;21.652;2023-07-31T10:15:40;25.23;64.15
69162;DHT22;56269;51.738;21.652;2023-07-31T10:18:10;25.45;65.57
69162;DHT22;56269;51.738;21.652;2023-07-31T10:20:37;25.40;63.43
69162;DHT22;56269;51.738;21.652;2023-07-31T10:23:04;24.60;63.18
69162;DHT22;56269;51.738;21.652;2023-07-31T10:25:32;24.67;63.24
69162;DHT22;56269;51.738;21.652;2023-07-31T10:27:58;25.50;62.76
69162;DHT22;56269;51.738;21.652;2023-07-31T10:30:29;25.33;59.15
69162;DHT22;56269;51.738;21.652;2023-07-31T10:32:56;24.23;61.24
69162;DHT22;56269;51.738;21.652;2023-07-31T10:35:23;24.34;59.37
69162;DHT22;56269;51.738;21.652;2023-07-31T10:37:49;25.29;59.61
69162;DHT22;56269;51.738;21.652;2023-07-31T10:40:18;25.51;59.21
69162;DHT22;56269;51.738;21.652;2023-07-31T10:42:50;25.28;59.21
69162;DHT22;56269;51.738;21.652;2023-07-31T10:45:33;25.87;61.61
69162;DHT22;56269;51.738;21.652;2023-07-31T10:48:26;26.37;60.18
69162;DHT22;56269;51.738;21.652;2023-07-31T10:50:58;26.52;58.47
69162;DHT22;56269;51.738;21.652;2023-07-31T10:53:34;25.94;59.57
69162;DHT22;56269;51.738;21.652;2023-07-31T10:56:05;25.63;61.74
69162;DHT22;56269;51.738;21.652;2023-07-31T10:58:32;25.66;60.73
69162;DHT22;56269;51.738;21.652;2023-07-31T11:01:01;25.81;62.08
69162;DHT22;56269;51.738;21.652;2023-07-31T11:03:47;25.18;58.79
69162;DHT22;56269;51.738;21.652;2023-07-31T11:06:16;25.65;59.92
69162;DHT22;56269;51.738;21.652;2023-07-31T11:08:44;26.49;59.19
69162;DHT22;56269;51.738;21.652;2023-07-31T11:11:13;26.62;57.48
69162;DHT22;56269;51.738;21.652;2023-07-31T11:16:12;26.86;55.35
69162;DHT22;56269;51.738;21.652;2023-07-31T11:18:43;26.96;52.14
69162;DHT22;56269;51.738;21.652;2023-07-31T11:21:15;26.78;52.96
69162;DHT22;56269;51.738;21.652;2023-07-31T11:23:47;27.27;54.86
69162;DHT22;56269;51.738;21.652;2023-07-31T11:26:14;27.44;56.12
69162;DHT22;56269;51.738;21.652;2023-07-31T11:28:40;27.77;55.32
69162;DHT22;56269;51.738;21.652;2023-07-31T11:31:09;26.86;56.35
69162;DHT22;56269;51.738;21.652;2023-07-31T11:33:36;25.76;57.85
69162;DHT22;56269;51.738;21.652;2023-07-31T11:36:03;25.29;58.57
69162;DHT22;56269;51.738;21.652;2023-07-31T11:38:32;25.89;60.95
69162;DHT22;56269;51.738;21.652;2023-07-31T11:41:01;25.28;57.20
69162;DHT22;56269;51.738;21.652;2023-07-31T11:43:33;26.05;58.83
69162;DHT22;56269;51.738;21.652;2023-07-31T11:46:00;26.48;55.63
69162;DHT22;56269;51.738;21.652;2023-07-31T11:48:31;26.37;53.57
69162;DHT22;56269;51.738;21.652;2023-07-31T11:51:07;26.44;51.97
69162;DHT22;56269;51.738;21.652;2023-07-31T11:53:38;27.02;51.00
69162;DHT22;56269;51.738;21.652;2023-07-31T11:56:07;28.06;51.44
69162;DHT22;56269;51.738;21.652;2023-07-31T11:58:35;27.39;52.71
69162;DHT22;56269;51.738;21.652;2023-07-31T12:01:02;27.40;49.36
69162;DHT22;56269;51.738;21.652;2023-07-31T12:03:28;26.81;50.62
69162;DHT22;56269;51.738;21.652;2023-07-31T12:05:55;26.22;55.11
69162;DHT22;56269;51.738;21.652;2023-07-31T12:08:23;25.83;54.95
69162;DHT22;56269;51.738;21.652;2023-07-31T12:10:51;26.47;55.06
69162;DHT22;56269;51.738;21.652;2023-07-31T12:13:23;26.95;55.96
69162;DHT22;56269;51.738;21.652;2023-07-31T12:15:54;26.92;51.67
69162;DHT22;56269;51.738;21.652;2023-07-31T12:18:21;27.06;52.38
69162;DHT22;56269;51.738;21.652;2023-07-31T12:20:53;26.79;54.10
69162;DHT22;56269;51.738;21.652;2023-07-31T12:23:22;26.17;55.99
69162;DHT22;56269;51.738;21.652;2023-07-31T12:28:43;25.54;54.99
69162;DHT22;56269;51.738;21.652;2023-07-31T12:31:11;24.77;57.64
69162;DHT22;56269;51.738;21.652;2023-07-31T12:33:39;24.57;60.07
69162;DHT22;56269;51.738;21.652;2023-07-31T12:36:33;25.23;61.44
69162;DHT22;56269;51.738;21.652;2023-07-31T12:39:01;25.38;58.43
69162;DHT22;56269;51.738;21.652;2023-07-31T12:41:27;25.60;58.61
69162;DHT22;56269;51.738;21.652;2023-07-31T12:43:54;25.59;58.22
69162;DHT22;56269;51.738;21.652;2023-07-31T12:46:21;25.18;57.45
69162;DHT22;56269;51.738;21.652;2023-07-31T12:48:47;24.88;57.71
69162;DHT22;56269;51.738;21.652;2023-07-31T12:51:13;24.63;57.96
69162;DHT22;56269;51.738;21.652;2023-07-31T12:53:39;24.72;57.48
69162;DHT22;56269;51.738;21.652;2023-07-31T12:56:06;24.77;57.80
69162;DHT22;56269;51.738;21.652;2023-07-31T12:58:32;25.40;58.27
69162;DHT22;56269;51.738;21.652;2023-07-31T13:00:58;25.70;56.24
69162;DHT22;56269;51.738;21.652;2023-07-31T13:03:24;25.60;56.75
69162;DHT22;56269;51.738;21.652;2023-07-31T13:05:50;25.91;57.07
69162;DHT22;56269;51.738;21.652;2023-07-31T13:08:18;25.91;56.39
69162;DHT22;56269;51.738;21.652;2023-07-31T13:10:45;25.87;54.94
69162;DHT22;56269;51.738;21.652;2023-07-31T13:13:11;25.36;54.58
69162;DHT22;56269;51.738;21.652;2023-07-31T13:15:38;25.08;56.21
69162;DHT22;56269;51.738;21.652;2023-07-31T13:18:04;24.91;55.10
69162;DHT22;56269;51.738;21.652;2023-07-31T13:20:30;24.92;56.74
69162;DHT22;56269;51.738;21.652;2023-07-31T13:22:56;24.77;55.58
69162;DHT22;56269;51.738;21.652;2023-07-31T13:25:23;24.96;56.90
69162;DHT22;56269;51.738;21.652;2023-07-31T13:27:49;25.04;55.35
69162;DHT22;56269;51.738;21.652;2023-07-31T13:30:15;25.18;57.58
69162;DHT22;56269;51.738;21.652;2023-07-31T13:32:41;25.26;55.53
69162;DHT22;56269;51.738;21.652;2023-07-31T13:35:08;24.98;55.96
69162;DHT22;56269;51.738;21.652;2023-07-31T13:37:35;24.40;55.03
69162;DHT22;56269;51.738;21.652;2023-07-31T13:40:01;24.12;55.49
69162;DHT22;56269;51.738;21.652;2023-07-31T13:42:31;24.28;57.40
69162;DHT22;56269;51.738;21.652;2023-07-31T13:44:57;24.48;57.76
69162;DHT22;56269;51.738;21.652;2023-07-31T13:47:23;24.69;57.74
69162;DHT22;56269;51.738;21.652;2023-07-31T13:49:49;24.95;57.32
69162;DHT22;56269;51.738;21.652;2023-07-31T13:52:15;25.30;57.76
69162;DHT22;56269;51.738;21.652;2023-07-31T13:54:42;25.73;54.16
69162;DHT22;56269;51.738;21.652;2023-07-31T13:57:08;26.35;52.17
69162;DHT22;56269;51.738;21.652;2023-07-31T13:59:34;27.00;52.77
69162;DHT22;56269;51.738;21.652;2023-07-31T14:02:02;27.61;52.62
69162;DHT22;56269;51.738;21.652;2023-07-31T14:04:29;27.30;51.13
69162;DHT22;56269;51.738;21.652;2023-07-31T14:06:56;25.66;52.05
69162;DHT22;56269;51.738;21.652;2023-07-31T14:09:22;25.81;52.24
69162;DHT22;56269;51.738;21.652;2023-07-31T14:11:48;25.77;52.89
69162;DHT22;56269;51.738;21.652;2023-07-31T14:14:15;26.42;53.81
69162;DHT22;56269;51.738;21.652;2023-07-31T14:16:43;26.35;53.94
69162;DHT22;56269;51.738;21.652;2023-07-31T14:19:09;27.27;53.95
69162;DHT22;56269;51.738;21.652;2023-07-31T14:21:36;27.57;52.31
69162;DHT22;56269;51.738;21.652;2023-07-31T14:24:02;27.19;51.55
69162;DHT22;56269;51.738;21.652;2023-07-31T14:26:28;27.36;53.12
69162;DHT22;56269;51.738;21.652;2023-07-31T14:28:55;27.37;51.60
69162;DHT22;56269;51.738;21.652;2023-07-31T14:31:21;26.34;53.04
69162;DHT22;56269;51.738;21.652;2023-07-31T14:33:48;26.52;51.50
69162;DHT22;56269;51.738;21.652;2023-07-31T14:36:14;26.08;53.77
69162;DHT22;56269;51.738;21.652;2023-07-31T14:38:40;25.39;53.13
69162;DHT22;56269;51.738;21.652;2023-07-31T14:41:06;25.09;54.68
69162;DHT22;56269;51.738;21.652;2023-07-31T14:43:32;25.01;54.88
69162;DHT22;56269;51.738;21.652;2023-07-31T14:45:58;25.43;53.99
69162;DHT22;56269;51.738;21.652;2023-07-31T14:48:26;25.62;53.82
69162;DHT22;56269;51.738;21.652;2023-07-31T14:50:53;25.89;55.31
69162;DHT22;56269;51.738;21.652;2023-07-31T14:53:20;25.51;54.74
69162;DHT22;56269;51.738;21.652;2023-07-31T14:55:47;25.15;54.97
69162;DHT22;56269;51.738;21.652;2023-07-31T14:58:13;24.82;55.02
69162;DHT22;56269;51.738;21.652;2023-07-31T15:00:40;25.25;53.44
69162;DHT22;56269;51.738;21.652;2023-07-31T15:03:07;25.23;53.53
69162;DHT22;56269;51.738;21.652;2023-07-31T15:05:33;25.86;53.20
69162;DHT22;56269;51.738;21.652;2023-07-31T15:07:59;26.16;50.56
69162;DHT22;56269;51.738;21.652;2023-07-31T15:10:25;26.95;52.21
69162;DHT22;56269;51.738;21.652;2023-07-31T15:12:51;26.98;50.09
69162;DHT22;56269;51.738;21.652;2023-07-31T15:15:17;27.19;50.83
69162;DHT22;56269;51.738;21.652;2023-07-31T15:17:44;26.35;49.84
69162;DHT22;56269;51.738;21.652;2023-07-31T15:20:10;26.78;49.73
69162;DHT22;56269;51.738;21.652;2023-07-31T15:22:38;26.52;51.98